Time;durP1;ratioP1;P1;durP2;ratioP2;P2;SDS_P1;SDS_P2;PMS_P1;PMS_P2;Temp;Humidity;BMP_temperature;BMP_pressure;BME280_temperature;BME280_humidity;BME280_pressure;Samples;Min_cycle;Max_cycle;Signal;HPM_P1;HPM_P2
2023/12/16 00:05:04;;;;;;;3.40;2.22;;;;;;;6.45;87.17;103055.88;15727070;28;20044;-53
2023/12/16 00:12:40;;;;;;;9.32;2.30;;;;;;;6.60;87.17;103051.94;15732912;28;20068;-50
2023/12/16 00:20:14;;;;;;;5.55;2.17;;;;;;;6.48;87.27;103046.75;15730062;28;20056;-52
2023/12/16 00:27:49;;;;;;;;;;;;;;;6.30;88.06;103059.81;15734377;28;20037;-52
2023/12/16 00:35:22;;;;;;;4.43;1.15;;;;;;;6.06;89.25;103059.94;15732531;28;19927;-54
2023/12/16 00:42:57;;;;;;;0.10;0.10;;;;;;;6.28;87.96;103048.41;15731549;28;20040;-48
2023/12/16 00:50:31;;;;;;;0.10;0.10;;;;;;;6.26;87.96;103056.53;15732731;28;20267;-55
2023/12/16 00:58:10;;;;;;;0.15;0.15;;;;;;;6.37;87.56;103052.97;15733379;28;20094;-50
2023/12/16 01:05:45;;;;;;;0.00;0.00;;;;;;;6.20;87.52;103062.38;15732635;28;20427;-50
2023/12/16 01:13:19;;;;;;;0.10;0.10;;;;;;;6.39;88.15;103069.72;15734171;28;20509;-51
2023/12/16 01:20:57;;;;;;;2.28;1.92;;;;;;;6.25;87.42;103072.63;15728734;28;20144;-52
2023/12/16 01:28:32;;;;;;;1.65;0.40;;;;;;;6.53;87.49;103077.44;15727379;28;20492;-53
2023/12/16 01:36:07;;;;;;;1.75;0.55;;;;;;;6.50;86.56;103044.81;15738737;28;20512;-52
2023/12/16 01:43:41;;;;;;;0.30;0.30;;;;;;;6.76;86.30;103064.88;15742130;28;20079;-53
2023/12/16 01:51:17;;;;;;;1.38;1.27;;;;;;;6.39;87.39;103067.91;15740106;28;20056;-49
2023/12/16 01:58:53;;;;;;;0.00;0.00;;;;;;;6.62;86.14;103067.81;15741072;28;20516;-52
2023/12/16 02:06:26;;;;;;;0.70;0.70;;;;;;;6.44;86.24;103077.34;15740459;28;20036;-50
2023/12/16 02:14:00;;;;;;;;;;;;;;;6.58;86.63;103090.41;15744259;28;20182;-51
2023/12/16 02:21:34;;;;;;;0.15;0.10;;;;;;;6.90;85.97;103106.38;15722553;28;19927;-50
2023/12/16 02:29:10;;;;;;;0.10;0.10;;;;;;;6.79;86.06;103091.28;15737555;28;20135;-51
2023/12/16 02:36:44;;;;;;;0.35;0.35;;;;;;;6.48;87.74;103079.63;15734869;28;20145;-49
2023/12/16 02:44:20;;;;;;;0.20;0.20;;;;;;;6.52;87.46;103080.22;15732105;28;20377;-51
2023/12/16 02:51:54;;;;;;;0.00;0.00;;;;;;;6.44;87.11;103093.34;15729471;28;20497;-51
2023/12/16 02:59:33;;;;;;;2.70;2.42;;;;;;;6.35;87.98;103081.63;15736210;28;20044;-51
2023/12/16 03:07:10;;;;;;;0.85;0.75;;;;;;;6.62;87.62;103078.47;15741598;28;20539;-49
2023/12/16 03:14:47;;;;;;;1.35;0.93;;;;;;;6.48;87.80;103086.78;15735353;28;20040;-49
2023/12/16 03:22:22;;;;;;;1.55;1.45;;;;;;;6.60;87.20;103107.13;15737279;28;20060;-52
2023/12/16 03:29:57;;;;;;;0.77;0.77;;;;;;;6.56;86.64;103106.53;15734338;28;20040;-49
2023/12/16 03:37:31;;;;;;;2.03;0.70;;;;;;;6.70;86.57;103112.53;15738651;28;20090;-52
2023/12/16 03:45:08;;;;;;;0.17;0.17;;;;;;;6.50;87.87;103127.53;15733474;28;20370;-50
2023/12/16 03:52:41;;;;;;;0.73;0.73;;;;;;;6.29;87.21;103116.75;15727218;28;20135;-52
2023/12/16 04:00:18;;;;;;;1.55;1.45;;;;;;;6.59;87.15;103124.13;15730269;28;20385;-52
2023/12/16 04:07:52;;;;;;;0.20;0.20;;;;;;;6.41;86.66;103117.59;15733392;28;20040;-52
2023/12/16 04:15:27;;;;;;;0.05;0.05;;;;;;;6.48;86.21;103121.44;15732733;28;20041;-51
2023/12/16 04:23:02;;;;;;;0.45;0.45;;;;;;;6.45;86.30;103114.56;15729999;28;20445;-53
2023/12/16 04:30:37;;;;;;;0.32;0.32;;;;;;;6.39;86.75;103123.91;15730544;28;20114;-50
2023/12/16 04:38:12;;;;;;;6.50;3.00;;;;;;;6.38;86.66;103121.34;15736685;28;20071;-52
2023/12/16 04:45:47;;;;;;;;;;;;;;;6.45;85.44;103121.72;15729208;28;20141;-51
2023/12/16 04:53:20;;;;;;;6.70;3.67;;;;;;;6.49;85.95;103115.16;15727260;28;19920;-48
2023/12/16 05:00:55;;;;;;;0.43;0.32;;;;;;;6.30;86.60;103123.81;15728930;28;20457;-51
2023/12/16 05:08:28;;;;;;;1.55;0.65;;;;;;;6.33;86.68;103121.72;15737368;28;20087;-51
2023/12/16 05:16:07;;;;;;;1.17;0.98;;;;;;;6.35;84.80;103121.63;15743072;28;20051;-51
2023/12/16 05:23:40;;;;;;;2.30;1.55;;;;;;;5.98;86.77;103116.56;15743675;28;20473;-53
2023/12/16 05:31:15;;;;;;;0.00;0.00;;;;;;;6.18;85.84;103122.97;15743589;28;20063;-50
2023/12/16 05:38:49;;;;;;;0.80;0.80;;;;;;;6.03;86.16;103126.88;15744946;28;20048;-52
2023/12/16 05:46:23;;;;;;;0.43;0.43;;;;;;;6.09;85.61;103142.38;15748706;22;20045;-50
2023/12/16 05:53:56;;;;;;;1.98;1.50;;;;;;;6.33;84.67;103144.88;15726845;28;20672;-45
2023/12/16 06:01:32;;;;;;;0.60;0.60;;;;;;;5.95;85.82;103142.59;15670388;28;20057;-43
2023/12/16 06:09:06;;;;;;;0.05;0.05;;;;;;;6.00;85.38;103153.75;15665865;28;20037;-45
2023/12/16 06:16:40;;;;;;;0.55;0.30;;;;;;;6.42;84.08;103164.66;15669117;28;20055;-49
2023/12/16 06:24:14;;;;;;;1.55;0.57;;;;;;;6.56;82.68;103159.88;15669409;28;20497;-44
2023/12/16 06:31:48;;;;;;;;;;;;;;;6.69;82.81;103169.56;15662238;28;20044;-46
2023/12/16 06:39:22;;;;;;;0.43;0.43;;;;;;;6.44;82.80;103168.06;15667863;28;19921;-49
2023/12/16 06:46:57;;;;;;;0.20;0.20;;;;;;;6.50;83.51;103154.22;15659573;28;20041;-46
2023/12/16 06:54:30;;;;;;;0.40;0.40;;;;;;;6.29;83.61;103164.78;15655480;28;20466;-46
2023/12/16 07:02:06;;;;;;;0.70;0.70;;;;;;;6.71;82.14;103173.78;15664957;28;20080;-44
2023/12/16 07:09:40;;;;;;;0.10;0.10;;;;;;;6.70;81.21;103165.91;15666757;28;20162;-48
2023/12/16 07:17:14;;;;;;;0.25;0.25;;;;;;;6.65;80.36;103175.16;15670857;28;20450;-48
2023/12/16 07:24:47;;;;;;;0.15;0.15;;;;;;;6.56;80.72;103177.72;15663960;28;20041;-48
2023/12/16 07:32:22;;;;;;;;;;;;;;;6.74;79.90;103167.38;15668439;28;20531;-44
2023/12/16 07:39:56;;;;;;;3.33;0.55;;;;;;;6.79;79.50;103170.50;15666985;28;19927;-49
2023/12/16 07:47:32;;;;;;;0.30;0.30;;;;;;;6.67;79.63;103168.84;15663259;28;20103;-47
2023/12/16 07:55:09;;;;;;;0.03;0.03;;;;;;;6.63;79.45;103185.13;15654525;28;20045;-48
2023/12/16 08:02:47;;;;;;;2.38;1.52;;;;;;;6.53;79.32;103202.84;15664253;28;20045;-49
2023/12/16 08:10:20;;;;;;;0.45;0.45;;;;;;;6.63;78.27;103194.94;15656615;28;20440;-50
2023/12/16 08:17:55;;;;;;;1.05;1.00;;;;;;;6.88;77.62;103204.47;15651766;28;20404;-48
2023/12/16 08:25:29;;;;;;;0.00;0.00;;;;;;;7.02;76.30;103212.19;15661563;28;20033;-53
2023/12/16 08:33:06;;;;;;;0.22;0.22;;;;;;;6.96;76.91;103218.03;15658703;28;20056;-50
2023/12/16 08:40:39;;;;;;;2.15;0.90;;;;;;;6.99;76.91;103212.44;15656582;28;20052;-48
2023/12/16 08:48:14;;;;;;;0.00;0.00;;;;;;;7.13;75.39;103201.50;15668422;28;20049;-46
2023/12/16 08:55:47;;;;;;;0.10;0.10;;;;;;;7.25;74.80;103207.63;15654615;28;20457;-48
2023/12/16 09:03:22;;;;;;;;;;;;;;;7.05;75.72;103203.94;15676618;28;20041;-47
2023/12/16 09:10:55;;;;;;;4.47;1.40;;;;;;;7.36;74.05;103194.19;15648891;28;20002;-50
2023/12/16 09:18:31;;;;;;;0.00;0.00;;;;;;;7.58;73.29;103189.72;15674150;28;20075;-47
2023/12/16 09:26:05;;;;;;;0.03;0.03;;;;;;;7.36;74.41;103182.66;15670573;28;20053;-52
2023/12/16 09:33:39;;;;;;;0.13;0.05;;;;;;;7.35;74.48;103180.97;15672261;28;20080;-48
2023/12/16 09:41:21;;;;;;;0.10;0.10;;;;;;;7.82;72.04;103174.25;15667431;28;20124;-47
2023/12/16 09:48:56;;;;;;;5.00;0.63;;;;;;;8.13;70.83;103166.25;15659454;28;20060;-59
2023/12/16 09:56:31;;;;;;;0.00;0.00;;;;;;;7.70;72.33;103195.88;15671544;28;20041;-51
2023/12/16 10:04:08;;;;;;;0.10;0.10;;;;;;;8.06;70.44;103183.78;15673363;28;20041;-46
2023/12/16 10:11:42;;;;;;;0.00;0.00;;;;;;;7.87;70.87;103185.41;15667359;28;20060;-53
2023/12/16 10:19:18;;;;;;;0.13;0.13;;;;;;;7.88;70.32;103155.03;15672793;28;20052;-46
2023/12/16 10:26:51;;;;;;;2.85;1.35;;;;;;;8.29;70.08;103130.94;15671868;28;20105;-47
2023/12/16 10:34:28;;;;;;;0.00;0.00;;;;;;;8.74;66.33;103126.00;15663014;28;20052;-48
2023/12/16 10:42:02;;;;;;;0.10;0.10;;;;;;;8.42;66.06;103140.47;15672000;28;20514;-46
2023/12/16 10:49:42;;;;;;;0.20;0.20;;;;;;;9.17;64.92;103122.06;15667429;28;20048;-49
2023/12/16 10:57:24;;;;;;;1.88;1.00;;;;;;;9.16;65.11;103115.84;15662642;28;20045;-49
2023/12/16 11:05:06;;;;;;;0.40;0.40;;;;;;;8.73;64.88;103113.59;15642868;28;20044;-48
2023/12/16 11:12:41;;;;;;;0.88;0.88;;;;;;;8.52;66.98;103092.28;15673152;28;20124;-46
2023/12/16 11:20:18;;;;;;;0.20;0.20;;;;;;;9.28;64.50;103089.75;15668635;28;20072;-48
2023/12/16 11:27:53;;;;;;;8.68;1.85;;;;;;;9.13;61.87;103102.72;15670250;28;20116;-46
2023/12/16 11:35:50;;;;;;;4.47;1.65;;;;;;;8.57;65.30;103095.41;15664365;28;20133;-55
2023/12/16 11:43:47;;;;;;;0.00;0.00;;;;;;;9.31;63.19;103080.56;15618905;28;20081;-48
2023/12/16 11:51:22;;;;;;;10.02;1.27;;;;;;;9.30;64.28;103074.38;15661956;28;20453;-48
2023/12/16 11:58:58;;;;;;;0.57;0.40;;;;;;;9.39;63.24;103049.38;15669473;28;20040;-50
2023/12/16 12:06:33;;;;;;;0.00;0.00;;;;;;;9.05;64.84;103045.53;15668228;28;20087;-49
2023/12/16 12:14:07;;;;;;;0.08;0.08;;;;;;;9.49;63.07;103037.78;15668082;28;20042;-46
2023/12/16 12:21:43;;;;;;;0.00;0.00;;;;;;;8.73;65.87;103029.75;15674062;28;20036;-47
2023/12/16 12:29:16;;;;;;;0.05;0.05;;;;;;;8.95;64.97;103005.31;15671812;28;20404;-48
2023/12/16 12:36:56;;;;;;;0.00;0.00;;;;;;;8.75;65.11;102996.47;15664378;28;20037;-50
2023/12/16 12:44:30;;;;;;;0.10;0.10;;;;;;;8.71;65.86;102976.34;15626903;28;20104;-53
2023/12/16 12:52:05;;;;;;;0.00;0.00;;;;;;;8.89;64.31;102971.09;15646353;28;20413;-48
2023/12/16 12:59:39;;;;;;;0.00;0.00;;;;;;;8.41;66.33;102961.28;15662892;28;20045;-48
2023/12/16 13:07:14;;;;;;;0.00;0.00;;;;;;;8.50;66.13;102944.38;15604303;28;20056;-49
2023/12/16 13:14:47;;;;;;;0.00;0.00;;;;;;;8.45;66.30;102938.63;15600515;28;20391;-46
2023/12/16 13:22:22;;;;;;;0.30;0.30;;;;;;;8.31;66.47;102939.88;15603244;28;20062;-52
2023/12/16 13:29:55;;;;;;;0.00;0.00;;;;;;;8.35;67.18;102935.91;15659869;28;20378;-49
2023/12/16 13:37:30;;;;;;;0.00;0.00;;;;;;;8.64;66.51;102940.44;15671795;28;20049;-47
2023/12/16 13:45:05;;;;;;;0.08;0.08;;;;;;;8.50;67.17;102936.34;15668911;28;20041;-46
2023/12/16 13:52:39;;;;;;;0.00;0.00;;;;;;;8.92;65.52;102927.97;15676926;28;20124;-48
2023/12/16 14:00:14;;;;;;;0.60;0.22;;;;;;;8.67;66.95;102943.66;15676161;28;20123;-45
2023/12/16 14:07:49;;;;;;;0.10;0.05;;;;;;;8.94;66.12;102953.59;15674701;28;20382;-50
2023/12/16 14:15:23;;;;;;;1.67;1.20;;;;;;;8.30;68.61;102950.69;15674852;28;20437;-48
2023/12/16 14:22:58;;;;;;;0.70;0.52;;;;;;;8.41;67.86;102946.09;15673706;28;20048;-49
2023/12/16 14:30:33;;;;;;;0.00;0.00;;;;;;;8.52;67.89;102950.44;15672604;28;20157;-47
2023/12/16 14:38:08;;;;;;;;;;;;;;;8.17;69.51;102957.19;15670988;28;20041;-49
2023/12/16 14:45:41;;;;;;;0.00;0.00;;;;;;;8.39;68.86;102944.53;15665683;28;20385;-46
2023/12/16 14:53:16;;;;;;;0.00;0.00;;;;;;;8.07;69.13;102926.06;15667557;28;20056;-48
2023/12/16 15:00:50;;;;;;;0.35;0.35;;;;;;;8.25;69.88;102937.72;15666407;28;20041;-45
2023/12/16 15:08:24;;;;;;;0.10;0.10;;;;;;;8.61;68.23;102922.81;15670538;28;20412;-48
2023/12/16 15:15:57;;;;;;;0.00;0.00;;;;;;;8.35;69.62;102921.69;15667738;28;20069;-47
2023/12/16 15:23:32;;;;;;;3.45;1.85;;;;;;;8.37;69.94;102933.97;15669875;28;20417;-47
2023/12/16 15:31:08;;;;;;;0.00;0.00;;;;;;;8.27;69.80;102932.25;15667404;28;20139;-46
2023/12/16 15:38:42;;;;;;;;;;;;;;;8.35;70.02;102921.69;15668389;28;20403;-45
2023/12/16 15:46:15;;;;;;;0.45;0.45;;;;;;;8.10;70.22;102917.75;15664365;28;19964;-51
2023/12/16 15:53:51;;;;;;;0.08;0.08;;;;;;;8.13;70.28;102904.09;15666668;28;20486;-48
2023/12/16 16:01:24;;;;;;;0.00;0.00;;;;;;;8.16;70.22;102906.50;15667400;28;20524;-52
2023/12/16 16:09:00;;;;;;;0.00;0.00;;;;;;;7.97;71.15;102903.78;15668560;28;20067;-51
2023/12/16 16:16:35;;;;;;;1.00;1.00;;;;;;;7.83;71.98;102907.72;15663214;28;20052;-46
2023/12/16 16:24:10;;;;;;;0.10;0.10;;;;;;;7.92;72.42;102896.19;15664934;28;20049;-52
2023/12/16 16:31:43;;;;;;;0.47;0.47;;;;;;;7.67;74.08;102927.81;15663999;28;20152;-48
2023/12/16 16:39:18;;;;;;;0.28;0.28;;;;;;;8.16;73.01;102955.50;15664279;28;20033;-49
2023/12/16 16:46:52;;;;;;;0.20;0.20;;;;;;;8.44;71.82;102950.31;15659871;28;20104;-51
2023/12/16 16:54:27;;;;;;;2.13;0.65;;;;;;;8.47;71.75;102938.47;15665011;28;20496;-48
2023/12/16 17:02:01;;;;;;;0.08;0.08;;;;;;;8.63;71.49;102928.03;15666961;28;20407;-54
2023/12/16 17:09:36;;;;;;;0.00;0.00;;;;;;;8.48;72.41;102937.47;15676233;28;20063;-48
2023/12/16 17:17:10;;;;;;;0.47;0.20;;;;;;;8.43;73.29;102935.22;15678862;28;20044;-52
2023/12/16 17:24:46;;;;;;;0.40;0.20;;;;;;;8.22;73.95;102923.81;15677086;28;20053;-45
2023/12/16 17:32:20;;;;;;;0.55;0.35;;;;;;;8.03;75.05;102904.09;15672521;28;20502;-46
2023/12/16 17:39:58;;;;;;;1.33;1.00;;;;;;;8.31;74.23;102905.06;15673093;28;20072;-48
2023/12/16 17:47:32;;;;;;;0.95;0.55;;;;;;;8.15;75.09;102897.59;15757586;22;20052;-49
2023/12/16 17:55:11;;;;;;;0.00;0.00;;;;;;;8.34;74.64;102880.69;15761951;28;20048;-54
2023/12/16 18:02:45;;;;;;;0.00;0.00;;;;;;;8.00;76.56;102906.19;15680453;28;20118;-52
2023/12/16 18:10:20;;;;;;;0.00;0.00;;;;;;;8.35;75.43;102935.09;15680968;28;20044;-53
2023/12/16 18:17:53;;;;;;;0.00;0.00;;;;;;;8.20;76.18;102940.00;15676409;28;20051;-56
2023/12/16 18:25:28;;;;;;;0.05;0.05;;;;;;;8.41;75.24;102931.84;15720700;28;20040;-47
2023/12/16 18:33:04;;;;;;;0.10;0.10;;;;;;;8.22;76.25;102937.19;15741435;28;20040;-52
2023/12/16 18:40:39;;;;;;;0.28;0.15;;;;;;;8.28;76.45;102952.66;15737220;28;20054;-53
2023/12/16 18:48:13;;;;;;;0.17;0.00;;;;;;;8.36;76.21;102932.28;15734467;28;20046;-52
2023/12/16 18:55:48;;;;;;;2.05;0.57;;;;;;;8.23;76.67;102942.38;15737303;28;20045;-53
2023/12/16 19:03:21;;;;;;;0.00;0.00;;;;;;;8.31;76.73;102958.59;15737714;28;20067;-54
2023/12/16 19:10:55;;;;;;;0.80;0.63;;;;;;;8.46;76.30;102961.72;15735287;28;20124;-54
2023/12/16 19:18:29;;;;;;;0.00;0.00;;;;;;;8.53;76.46;102921.81;15738301;28;20443;-56
2023/12/16 19:26:04;;;;;;;3.95;2.38;;;;;;;8.38;76.75;102943.69;15737087;28;20053;-55
2023/12/16 19:33:38;;;;;;;0.28;0.10;;;;;;;8.39;77.13;102942.72;15734392;28;20481;-56
2023/12/16 19:41:13;;;;;;;3.90;1.85;;;;;;;8.46;76.52;102926.09;15726545;28;20412;-54
2023/12/16 19:48:46;;;;;;;0.30;0.30;;;;;;;8.27;77.93;102908.19;15727994;28;20221;-54
2023/12/16 19:56:21;;;;;;;0.00;0.00;;;;;;;8.79;76.09;102911.38;15693229;28;20508;-54
2023/12/16 20:03:54;;;;;;;0.52;0.52;;;;;;;8.44;77.68;102915.53;15669976;28;20072;-53
2023/12/16 20:11:32;;;;;;;0.05;0.05;;;;;;;8.21;78.73;102908.72;15667878;28;20045;-53
2023/12/16 20:19:07;;;;;;;0.47;0.47;;;;;;;8.28;78.40;102917.88;15669553;28;20051;-54
2023/12/16 20:26:42;;;;;;;3.97;2.28;;;;;;;8.19;78.85;102915.06;15668102;28;20477;-55
2023/12/16 20:34:16;;;;;;;0.30;0.30;;;;;;;8.61;77.53;102924.66;15676205;28;20072;-50
2023/12/16 20:41:51;;;;;;;0.00;0.00;;;;;;;8.55;78.32;102927.91;15713394;28;20101;-53
2023/12/16 20:49:24;;;;;;;0.00;0.00;;;;;;;8.31;79.25;102929.16;15725312;28;20068;-52
2023/12/16 20:57:00;;;;;;;1.55;0.90;;;;;;;8.19;79.85;102925.78;15692717;28;20056;-51
2023/12/16 21:04:34;;;;;;;1.33;0.30;;;;;;;8.33;79.40;102931.69;15714252;28;20049;-55
2023/12/16 21:12:09;;;;;;;0.50;0.40;;;;;;;8.51;78.95;102921.97;15734255;28;20100;-53
2023/12/16 21:19:42;;;;;;;0.20;0.20;;;;;;;8.19;79.86;102912.38;15715441;28;20040;-52
2023/12/16 21:27:17;;;;;;;0.00;0.00;;;;;;;8.46;79.00;102905.50;15723062;28;20037;-51
2023/12/16 21:34:50;;;;;;;0.00;0.00;;;;;;;8.36;79.34;102897.50;15718161;28;20052;-55
2023/12/16 21:42:25;;;;;;;0.25;0.25;;;;;;;8.48;78.94;102913.38;15708031;28;20127;-51
2023/12/16 21:50:03;;;;;;;0.30;0.30;;;;;;;8.29;80.17;102922.25;15738234;28;20264;-54
2023/12/16 21:57:40;;;;;;;0.00;0.00;;;;;;;8.28;79.51;102897.31;15739430;28;20048;-52
2023/12/16 22:05:14;;;;;;;0.47;0.40;;;;;;;8.25;79.67;102886.91;15744120;28;20413;-51
2023/12/16 22:12:49;;;;;;;0.28;0.28;;;;;;;8.54;78.97;102859.31;15740599;28;20178;-49
2023/12/16 22:20:22;;;;;;;0.20;0.20;;;;;;;8.12;80.46;102855.13;15741140;28;20074;-52
2023/12/16 22:27:57;;;;;;;0.20;0.20;;;;;;;8.11;80.34;102893.56;15731152;28;20044;-54
2023/12/16 22:35:30;;;;;;;0.30;0.30;;;;;;;8.01;80.74;102895.34;15726624;28;20051;-55
2023/12/16 22:43:04;;;;;;;;;;;;;;;8.22;79.83;102900.56;15728753;28;20588;-56
2023/12/16 22:50:40;;;;;;;1.80;1.15;;;;;;;8.17;79.96;102881.44;15728535;28;19989;-53
2023/12/16 22:58:15;;;;;;;4.75;0.38;;;;;;;8.17;80.02;102900.16;15732464;28;20036;-49
2023/12/16 23:05:49;;;;;;;2.75;0.73;;;;;;;8.33;79.33;102886.19;15732000;28;20412;-53
2023/12/16 23:13:23;;;;;;;0.50;0.50;;;;;;;8.09;80.15;102884.81;15727825;28;20060;-53
2023/12/16 23:20:58;;;;;;;1.13;0.60;;;;;;;8.11;80.30;102892.69;15721061;28;20050;-53
2023/12/16 23:28:36;;;;;;;0.22;0.22;;;;;;;8.54;78.75;102905.66;15726576;28;20057;-54
2023/12/16 23:36:10;;;;;;;0.35;0.20;;;;;;;8.11;80.28;102901.56;15728504;28;20044;-53
2023/12/16 23:43:48;;;;;;;43.75;1.35;;;;;;;8.50;78.52;102920.31;15699932;28;20048;-53
2023/12/16 23:51:21;;;;;;;0.80;0.80;;;;;;;8.40;79.10;102922.16;15736376;22;20060;-51
2023/12/16 23:58:57;;;;;;;0.40;0.40;;;;;;;8.27;79.21;102906.34;15686153;28;20247;-45
